PHBK

Details ICAO PHBK (BKH)
Name BARKING SANDS PMRF
Region USA (Hawaii)
Timezone Pacific/Honolulu (UTC-10.0)
Plans Departing 9
Arriving 10
Stats Elevation 23 ft / 7 m (AMSL)
Location 22.022773° -159.785060°
Runways 1
Magnetic Variation 9.436° E
Sunrise 2017-12-10 17:09:07 UTC / 2017-12-10 07:09:07 Local
Sunset 2017-12-11 03:58:05 UTC / 2017-12-10 17:58:05 Local
Advertisement - Login to hide

Runways

ID Width Length Bearing (true) Bearing (mag) Surface Threshold Offset Overrun Length
16 151 ft / 46 m 6,006 ft / 1,831 m 170.05° 160.61° Asphalt 0 ft / 0 m 98 ft / 30 m
34 151 ft / 46 m 6,006 ft / 1,831 m 350.05° 340.61° Asphalt 0 ft / 0 m 98 ft / 30 m

Map

Weather


0- 5 10 15 20 25 30 35+ Temperature / ° C

Clouds and Precipitation
Forecast for 2017-12-11 00:00 UTC. Updated an hour ago

Ground ~20,000 ft ~40,000 ft Winds

METAR

PHBK 102356Z AUTO 26006KT 10SM CLR 24/18 A2995 RMK AO2 SLP145 T02440183 10250 20206 58027

TAF

Not found

Frequencies

Unicom 122.80 MHz UNICOM
Tower 126.20 MHz TWR
Warning: Do not use this data for real-world aviation or navigation. No guarantee of current accuracy is given.